Time;durP1;ratioP1;P1;durP2;ratioP2;P2;SDS_P1;SDS_P2;PMS_P1;PMS_P2;Temp;Humidity;BMP_temperature;BMP_pressure;BME280_temperature;BME280_humidity;BME280_pressure;Samples;Min_cycle;Max_cycle;Signal;HPM_P1;HPM_P2
2023/05/09 00:00:23;;;;;;;8.50;4.25;;;;;;;;;;4943479;28;20063;-83
2023/05/09 00:02:50;;;;;;;9.20;3.88;;;;;;;;;;4960352;28;20051;-83
2023/05/09 00:05:17;;;;;;;11.85;4.57;;;;;;;;;;4961916;28;20051;-83
2023/05/09 00:07:44;;;;;;;7.22;3.83;;;;;;;;;;4959299;28;20047;-83
2023/05/09 00:10:11;;;;;;;9.30;4.22;;;;;;;;;;4966342;28;20116;-82
2023/05/09 00:12:37;;;;;;;9.43;3.58;;;;;;;;;;4967424;28;20074;-82
2023/05/09 00:15:07;;;;;;;8.50;3.50;;;;;;;;;;4964809;28;20070;-82
2023/05/09 00:17:37;;;;;;;8.30;3.45;;;;;;;;;;4965205;28;20067;-83
2023/05/09 00:20:11;;;;;;;10.30;3.85;;;;;;;;;;4962443;28;20051;-83
2023/05/09 00:22:41;;;;;;;8.95;3.65;;;;;;;;;;4962315;28;20468;-82
2023/05/09 00:25:08;;;;;;;11.85;4.25;;;;;;;;;;4951131;28;20039;-81
2023/05/09 00:27:34;;;;;;;10.93;3.92;;;;;;;;;;4961786;28;20047;-81
2023/05/09 00:30:04;;;;;;;5.93;3.30;;;;;;;;;;4965575;28;20119;-82
2023/05/09 00:32:31;;;;;;;10.45;3.70;;;;;;;;;;4956315;28;20526;-82
2023/05/09 00:34:58;;;;;;;9.57;3.72;;;;;;;;;;4959214;28;20054;-82
2023/05/09 00:37:25;;;;;;;7.00;3.42;;;;;;;;;;4961372;28;20094;-82
2023/05/09 00:39:51;;;;;;;6.93;3.70;;;;;;;;;;4958429;28;20047;-81
2023/05/09 00:42:18;;;;;;;14.30;3.58;;;;;;;;;;4974831;28;20047;-81
2023/05/09 00:44:45;;;;;;;6.97;3.55;;;;;;;;;;4975560;28;20067;-80
2023/05/09 00:47:11;;;;;;;7.85;3.30;;;;;;;;;;4959144;28;20062;-84
2023/05/09 00:49:38;;;;;;;7.03;3.53;;;;;;;;;;4943402;28;20089;-82
2023/05/09 00:52:05;;;;;;;5.78;3.60;;;;;;;;;;4960682;28;20039;-82
2023/05/09 00:54:32;;;;;;;9.15;3.88;;;;;;;;;;4961261;28;20101;-83
2023/05/09 00:56:59;;;;;;;10.38;3.50;;;;;;;;;;4981334;28;20075;-81
2023/05/09 00:59:26;;;;;;;8.82;3.67;;;;;;;;;;4966809;28;20051;-82
2023/05/09 01:01:55;;;;;;;9.40;3.75;;;;;;;;;;4963674;28;20081;-82
2023/05/09 01:04:21;;;;;;;9.40;3.88;;;;;;;;;;4961831;28;20039;-81
2023/05/09 01:07:01;;;;;;;11.45;3.55;;;;;;;;;;4962435;28;20039;-81
2023/05/09 01:09:33;;;;;;;8.45;3.63;;;;;;;;;;4958681;28;20118;-81
2023/05/09 01:12:05;;;;;;;6.10;3.55;;;;;;;;;;4962352;28;20691;-82
2023/05/09 01:14:50;;;;;;;10.70;3.47;;;;;;;;;;4963052;28;20051;-81
2023/05/09 01:17:43;;;;;;;10.07;3.50;;;;;;;;;;4953690;28;20063;-82
2023/05/09 01:20:13;;;;;;;9.70;4.22;;;;;;;;;;4940380;28;20054;-81
2023/05/09 01:22:44;;;;;;;7.45;3.63;;;;;;;;;;4962575;28;20047;-82
2023/05/09 01:25:18;;;;;;;5.95;3.63;;;;;;;;;;4943202;28;20507;-82
2023/05/09 01:28:03;;;;;;;9.27;3.92;;;;;;;;;;4941742;29;20129;-82
2023/05/09 01:30:31;;;;;;;8.05;3.92;;;;;;;;;;4969839;28;20050;-82
2023/05/09 01:33:02;;;;;;;6.88;3.20;;;;;;;;;;4936536;28;20062;-82
2023/05/09 01:35:30;;;;;;;9.10;3.30;;;;;;;;;;4958844;28;20107;-83
2023/05/09 01:37:57;;;;;;;10.68;3.63;;;;;;;;;;4942547;28;20062;-82
2023/05/09 01:40:27;;;;;;;7.40;3.60;;;;;;;;;;4958257;28;20115;-82
2023/05/09 01:42:56;;;;;;;9.95;4.07;;;;;;;;;;4967078;28;20054;-83
2023/05/09 01:45:23;;;;;;;11.38;3.92;;;;;;;;;;4966329;28;20512;-84
2023/05/09 01:47:52;;;;;;;7.57;3.63;;;;;;;;;;4965326;28;20067;-83
2023/05/09 01:50:19;;;;;;;6.93;3.45;;;;;;;;;;4963953;28;20048;-81
2023/05/09 01:52:48;;;;;;;10.60;3.67;;;;;;;;;;4957494;28;20048;-83
2023/05/09 01:55:18;;;;;;;5.88;3.47;;;;;;;;;;4956126;28;20056;-82
2023/05/09 01:57:45;;;;;;;9.07;3.55;;;;;;;;;;4960348;28;20043;-82
2023/05/09 02:00:13;;;;;;;7.35;3.83;;;;;;;;;;4960000;28;20043;-82
2023/05/09 02:02:40;;;;;;;8.00;3.50;;;;;;;;;;4959724;28;20127;-82
2023/05/09 02:05:09;;;;;;;9.80;3.80;;;;;;;;;;4975267;28;20125;-84
2023/05/09 02:07:36;;;;;;;10.90;4.28;;;;;;;;;;4961465;28;20057;-79
2023/05/09 02:10:03;;;;;;;8.15;3.97;;;;;;;;;;4963728;28;20040;-83
2023/05/09 02:12:30;;;;;;;10.60;3.70;;;;;;;;;;4956496;28;20102;-82
2023/05/09 02:14:57;;;;;;;6.55;3.65;;;;;;;;;;4972851;28;20106;-83
2023/05/09 02:17:23;;;;;;;8.23;3.45;;;;;;;;;;4961319;28;20040;-82
2023/05/09 02:19:50;;;;;;;10.23;3.95;;;;;;;;;;4962905;28;20079;-82
2023/05/09 02:22:17;;;;;;;9.68;3.95;;;;;;;;;;4961399;28;20051;-81
2023/05/09 02:24:46;;;;;;;11.48;4.00;;;;;;;;;;4970607;28;20734;-82
2023/05/09 02:27:13;;;;;;;8.48;3.75;;;;;;;;;;4946028;29;20043;-81
2023/05/09 02:29:50;;;;;;;10.60;3.80;;;;;;;;;;4941560;28;20049;-82
2023/05/09 02:32:24;;;;;;;6.55;3.80;;;;;;;;;;4966943;28;20047;-82
2023/05/09 02:34:54;;;;;;;9.05;4.10;;;;;;;;;;4964324;28;20062;-82
2023/05/09 02:37:22;;;;;;;6.55;3.58;;;;;;;;;;4962706;28;20051;-82
2023/05/09 02:39:49;;;;;;;9.80;4.30;;;;;;;;;;4960228;28;20070;-82
2023/05/09 02:42:18;;;;;;;7.85;3.60;;;;;;;;;;4961545;28;20060;-82
2023/05/09 02:44:44;;;;;;;8.68;4.15;;;;;;;;;;4961154;28;20134;-82
2023/05/09 02:47:11;;;;;;;8.48;4.07;;;;;;;;;;4961965;28;20094;-83
2023/05/09 02:49:37;;;;;;;11.23;4.05;;;;;;;;;;4961476;28;20101;-81
2023/05/09 02:52:04;;;;;;;9.30;3.83;;;;;;;;;;4960540;28;20055;-82
2023/05/09 02:54:31;;;;;;;8.45;3.70;;;;;;;;;;4942821;29;20047;-82
2023/05/09 02:56:58;;;;;;;8.38;4.03;;;;;;;;;;4976731;28;20031;-81
2023/05/09 02:59:24;;;;;;;10.38;3.88;;;;;;;;;;4965026;28;20048;-82
2023/05/09 03:01:51;;;;;;;8.18;4.13;;;;;;;;;;4955029;28;20058;-83
2023/05/09 03:04:18;;;;;;;7.45;3.67;;;;;;;;;;4956088;28;20039;-82
2023/05/09 03:06:45;;;;;;;11.38;4.28;;;;;;;;;;4940800;28;20051;-82
2023/05/09 03:09:12;;;;;;;7.45;4.25;;;;;;;;;;4957526;28;20047;-82
2023/05/09 03:11:38;;;;;;;6.53;3.95;;;;;;;;;;4958623;28;20047;-82
2023/05/09 03:14:07;;;;;;;10.50;4.10;;;;;;;;;;4961395;28;20098;-82
2023/05/09 03:16:34;;;;;;;9.75;4.20;;;;;;;;;;4967382;29;20122;-82
2023/05/09 03:19:02;;;;;;;9.25;4.30;;;;;;;;;;4963713;29;20043;-81
2023/05/09 03:21:30;;;;;;;9.35;3.88;;;;;;;;;;4963338;28;20051;-81
2023/05/09 03:23:57;;;;;;;18.98;4.07;;;;;;;;;;4959606;28;22900;-81
2023/05/09 03:26:25;;;;;;;7.88;3.67;;;;;;;;;;4953872;28;20077;-82
2023/05/09 03:28:53;;;;;;;7.25;3.53;;;;;;;;;;4972402;28;20043;-83
2023/05/09 03:31:20;;;;;;;7.80;3.45;;;;;;;;;;4967008;28;20747;-82
2023/05/09 03:33:46;;;;;;;8.52;4.05;;;;;;;;;;4950372;28;20662;-82
2023/05/09 03:36:14;;;;;;;7.38;3.90;;;;;;;;;;4955905;28;20078;-82
2023/05/09 03:38:42;;;;;;;12.00;3.85;;;;;;;;;;4939321;28;20118;-81
2023/05/09 03:41:09;;;;;;;10.98;4.78;;;;;;;;;;4965396;28;20070;-81
2023/05/09 03:43:36;;;;;;;11.52;4.38;;;;;;;;;;4947275;28;20051;-81
2023/05/09 03:46:03;;;;;;;9.80;3.75;;;;;;;;;;4960988;28;20047;-81
2023/05/09 03:48:30;;;;;;;9.02;4.10;;;;;;;;;;4951448;28;20055;-82
2023/05/09 03:50:57;;;;;;;8.65;3.97;;;;;;;;;;4951988;28;20150;-82
2023/05/09 03:53:26;;;;;;;6.95;3.63;;;;;;;;;;4956072;28;20457;-82
2023/05/09 03:55:53;;;;;;;13.43;4.38;;;;;;;;;;4957042;28;20047;-83
2023/05/09 03:58:21;;;;;;;10.23;4.15;;;;;;;;;;4958045;28;20131;-82
2023/05/09 04:00:48;;;;;;;6.93;3.33;;;;;;;;;;4964154;28;20049;-82
2023/05/09 04:03:19;;;;;;;7.63;3.80;;;;;;;;;;4963343;28;20076;-82
2023/05/09 04:05:48;;;;;;;6.93;3.80;;;;;;;;;;4953033;28;20044;-82
2023/05/09 04:08:25;;;;;;;7.45;3.67;;;;;;;;;;4944881;28;20068;-81
2023/05/09 04:10:52;;;;;;;8.85;3.97;;;;;;;;;;4950168;28;20099;-82
2023/05/09 04:13:19;;;;;;;7.82;3.65;;;;;;;;;;4949255;28;20040;-81
2023/05/09 04:15:46;;;;;;;8.02;3.83;;;;;;;;;;4961226;28;20047;-82
2023/05/09 04:18:13;;;;;;;8.45;4.07;;;;;;;;;;4963115;28;20451;-81
2023/05/09 04:20:39;;;;;;;6.45;3.15;;;;;;;;;;4967070;28;20069;-81
2023/05/09 04:23:06;;;;;;;7.68;3.08;;;;;;;;;;4960525;28;20115;-82
2023/05/09 04:25:33;;;;;;;6.90;3.28;;;;;;;;;;4972596;28;20110;-83
2023/05/09 04:28:01;;;;;;;6.47;3.55;;;;;;;;;;4961427;28;20039;-83
2023/05/09 04:30:28;;;;;;;9.60;4.00;;;;;;;;;;4938470;28;20107;-82
2023/05/09 04:32:56;;;;;;;9.15;3.70;;;;;;;;;;4953954;28;20058;-82
2023/05/09 04:35:24;;;;;;;7.32;3.63;;;;;;;;;;4937525;29;20107;-82
2023/05/09 04:37:51;;;;;;;7.10;3.63;;;;;;;;;;4939382;29;20060;-80
2023/05/09 04:40:18;;;;;;;6.68;3.55;;;;;;;;;;4932542;29;20063;-79
2023/05/09 04:42:52;;;;;;;8.88;3.80;;;;;;;;;;4961522;29;20054;-79
2023/05/09 04:45:22;;;;;;;11.30;3.60;;;;;;;;;;4954587;28;20069;-82
2023/05/09 04:47:49;;;;;;;7.88;3.55;;;;;;;;;;4963254;28;20031;-82
2023/05/09 04:50:16;;;;;;;7.75;3.72;;;;;;;;;;4967418;28;20058;-82
2023/05/09 04:52:42;;;;;;;8.82;4.20;;;;;;;;;;4976861;28;20059;-80
2023/05/09 04:55:09;;;;;;;6.25;3.33;;;;;;;;;;4973703;28;20047;-81
2023/05/09 04:57:40;;;;;;;9.02;3.78;;;;;;;;;;4970581;28;20138;-82
2023/05/09 05:00:07;;;;;;;8.00;3.70;;;;;;;;;;4957573;28;20137;-82
2023/05/09 05:02:34;;;;;;;11.40;3.80;;;;;;;;;;4977369;28;20114;-82
2023/05/09 05:05:01;;;;;;;9.07;3.25;;;;;;;;;;4954887;28;20043;-81
2023/05/09 05:07:43;;;;;;;7.85;3.67;;;;;;;;;;4963414;29;20538;-80
2023/05/09 05:10:19;;;;;;;9.75;3.28;;;;;;;;;;4949276;29;20114;-81
2023/05/09 05:12:51;;;;;;;9.52;3.50;;;;;;;;;;4950989;29;20055;-82
2023/05/09 05:15:18;;;;;;;14.68;3.67;;;;;;;;;;4968797;28;20102;-81
2023/05/09 05:17:46;;;;;;;11.98;3.75;;;;;;;;;;4957866;28;20032;-81
2023/05/09 05:20:15;;;;;;;9.43;3.10;;;;;;;;;;4968010;28;20067;-81
2023/05/09 05:22:44;;;;;;;6.10;3.70;;;;;;;;;;4949445;29;20058;-82
2023/05/09 05:25:11;;;;;;;5.60;3.17;;;;;;;;;;4959427;28;20043;-82
2023/05/09 05:27:39;;;;;;;6.55;3.50;;;;;;;;;;4955502;28;20100;-81
2023/05/09 05:30:08;;;;;;;8.57;3.45;;;;;;;;;;4966950;28;20045;-80
2023/05/09 05:32:35;;;;;;;7.53;3.50;;;;;;;;;;4975731;28;20065;-81
2023/05/09 05:35:03;;;;;;;7.75;3.40;;;;;;;;;;4974992;28;20062;-81
2023/05/09 05:37:33;;;;;;;5.50;3.22;;;;;;;;;;4957353;28;20047;-81
2023/05/09 05:40:01;;;;;;;9.02;3.80;;;;;;;;;;4987392;28;20055;-81
2023/05/09 05:42:28;;;;;;;7.70;3.50;;;;;;;;;;4962944;28;20054;-81
2023/05/09 05:44:55;;;;;;;7.43;3.58;;;;;;;;;;4970882;28;20114;-82
2023/05/09 05:47:22;;;;;;;6.60;3.30;;;;;;;;;;4970540;28;20070;-82
2023/05/09 05:49:49;;;;;;;13.02;3.55;;;;;;;;;;4970617;28;20111;-81
2023/05/09 05:52:16;;;;;;;7.82;3.55;;;;;;;;;;4969707;28;20600;-80
2023/05/09 05:54:43;;;;;;;7.28;3.40;;;;;;;;;;4956690;28;20047;-80
2023/05/09 05:57:10;;;;;;;6.38;2.97;;;;;;;;;;4971792;28;20047;-80
2023/05/09 05:59:36;;;;;;;8.27;3.10;;;;;;;;;;4957346;28;20043;-82
2023/05/09 06:02:03;;;;;;;8.63;3.38;;;;;;;;;;4942856;28;20079;-81
2023/05/09 06:04:30;;;;;;;10.98;3.42;;;;;;;;;;4977637;28;20043;-82
2023/05/09 06:06:57;;;;;;;9.30;3.33;;;;;;;;;;4979703;28;20074;-81
2023/05/09 06:09:24;;;;;;;8.25;3.35;;;;;;;;;;4982073;28;20090;-81
2023/05/09 06:11:52;;;;;;;9.65;2.85;;;;;;;;;;4970384;28;20043;-82
2023/05/09 06:14:19;;;;;;;6.63;3.15;;;;;;;;;;4967673;28;20050;-82
2023/05/09 06:16:45;;;;;;;10.13;3.08;;;;;;;;;;4982056;28;20059;-81
2023/05/09 06:19:13;;;;;;;6.03;3.00;;;;;;;;;;4967394;28;20043;-81
2023/05/09 06:21:39;;;;;;;10.43;3.25;;;;;;;;;;4971055;28;20074;-79
2023/05/09 06:24:06;;;;;;;7.28;3.72;;;;;;;;;;4954333;28;20150;-82
2023/05/09 06:26:42;;;;;;;9.23;3.05;;;;;;;;;;4982257;28;20511;-81
2023/05/09 06:29:09;;;;;;;12.25;5.60;;;;;;;;;;4976133;28;20111;-81
2023/05/09 06:31:37;;;;;;;11.32;4.18;;;;;;;;;;4946175;29;20484;-82
2023/05/09 06:34:04;;;;;;;8.68;4.35;;;;;;;;;;4947312;28;20052;-80
2023/05/09 06:36:32;;;;;;;15.73;5.43;;;;;;;;;;4970058;28;20061;-81
2023/05/09 06:38:59;;;;;;;13.55;5.78;;;;;;;;;;4952313;28;20031;-81
2023/05/09 06:41:25;;;;;;;13.65;5.30;;;;;;;;;;4950644;29;20054;-80
2023/05/09 06:43:52;;;;;;;8.73;4.18;;;;;;;;;;4951019;29;20028;-79
2023/05/09 06:46:19;;;;;;;8.23;4.45;;;;;;;;;;4950517;29;20268;-80
2023/05/09 06:48:45;;;;;;;15.80;5.53;;;;;;;;;;4935818;29;20043;-79
2023/05/09 06:51:12;;;;;;;7.72;3.30;;;;;;;;;;4953154;29;20056;-80
2023/05/09 06:53:38;;;;;;;7.03;3.10;;;;;;;;;;4949202;29;20035;-81
2023/05/09 06:56:05;;;;;;;9.70;4.10;;;;;;;;;;4950558;28;20070;-79
2023/05/09 06:58:32;;;;;;;7.20;2.90;;;;;;;;;;4951079;29;20051;-80
2023/05/09 07:00:58;;;;;;;8.88;3.10;;;;;;;;;;4952819;29;20052;-81
2023/05/09 07:03:25;;;;;;;7.75;3.53;;;;;;;;;;4954379;28;20043;-79
2023/05/09 07:05:53;;;;;;;4.95;2.60;;;;;;;;;;4952940;28;20043;-80
2023/05/09 07:08:20;;;;;;;7.05;2.30;;;;;;;;;;4950061;29;20044;-82
2023/05/09 07:10:46;;;;;;;9.32;2.45;;;;;;;;;;4949927;29;20043;-82
2023/05/09 07:13:13;;;;;;;6.63;2.83;;;;;;;;;;4950416;29;20051;-82
2023/05/09 07:15:40;;;;;;;10.65;2.92;;;;;;;;;;4950204;29;20050;-82
2023/05/09 07:18:08;;;;;;;5.80;2.70;;;;;;;;;;4948524;29;20055;-82
2023/05/09 07:20:35;;;;;;;7.00;2.50;;;;;;;;;;4942385;28;20099;-82
2023/05/09 07:23:02;;;;;;;7.55;3.40;;;;;;;;;;4953684;28;20051;-80
2023/05/09 07:25:29;;;;;;;10.18;2.30;;;;;;;;;;4965682;28;20095;-79
2023/05/09 07:27:59;;;;;;;9.50;2.38;;;;;;;;;;4954402;28;20050;-82
2023/05/09 07:30:26;;;;;;;6.28;2.42;;;;;;;;;;4962080;28;20055;-81
2023/05/09 07:32:53;;;;;;;6.90;2.10;;;;;;;;;;4932438;29;20110;-82
2023/05/09 07:35:20;;;;;;;5.95;3.35;;;;;;;;;;4948232;29;20063;-82
2023/05/09 07:37:46;;;;;;;6.82;3.08;;;;;;;;;;4964161;28;20055;-81
2023/05/09 07:40:13;;;;;;;7.85;2.78;;;;;;;;;;4950141;28;20039;-83
2023/05/09 07:42:43;;;;;;;7.15;2.35;;;;;;;;;;4954640;28;20051;-82
2023/05/09 07:45:10;;;;;;;8.25;3.45;;;;;;;;;;4941719;29;20575;-82
2023/05/09 07:47:39;;;;;;;20.08;7.57;;;;;;;;;;4942325;29;20040;-84
2023/05/09 07:50:06;;;;;;;31.15;11.45;;;;;;;;;;4943336;29;20048;-83
2023/05/09 07:52:32;;;;;;;7.28;3.00;;;;;;;;;;4952887;28;20067;-82
2023/05/09 07:54:59;;;;;;;5.03;2.58;;;;;;;;;;4950924;29;20054;-83
2023/05/09 07:57:26;;;;;;;5.90;2.28;;;;;;;;;;4949879;29;20056;-84
2023/05/09 07:59:52;;;;;;;4.72;2.20;;;;;;;;;;4949786;29;20134;-82
2023/05/09 08:02:19;;;;;;;14.10;4.32;;;;;;;;;;4950127;29;20054;-83
2023/05/09 08:04:47;;;;;;;16.75;6.82;;;;;;;;;;4948117;29;20063;-82
2023/05/09 08:07:14;;;;;;;10.65;4.30;;;;;;;;;;4931124;29;20632;-83
2023/05/09 08:09:41;;;;;;;5.85;3.20;;;;;;;;;;4953253;28;20054;-82
2023/05/09 08:12:07;;;;;;;4.25;2.47;;;;;;;;;;4946917;28;20124;-83
2023/05/09 08:14:34;;;;;;;8.68;2.40;;;;;;;;;;4948995;28;20059;-83
2023/05/09 08:17:00;;;;;;;3.72;2.40;;;;;;;;;;4952594;29;20042;-82
2023/05/09 08:19:27;;;;;;;5.72;2.30;;;;;;;;;;4934855;29;20072;-84
2023/05/09 08:21:57;;;;;;;10.07;2.10;;;;;;;;;;4933757;29;20044;-85
2023/05/09 08:24:31;;;;;;;3.25;2.00;;;;;;;;;;4966234;28;20044;-82
2023/05/09 08:27:00;;;;;;;5.60;2.58;;;;;;;;;;4970919;28;20116;-81
2023/05/09 08:29:27;;;;;;;6.47;2.50;;;;;;;;;;4968837;28;20055;-83
2023/05/09 08:31:54;;;;;;;8.02;2.22;;;;;;;;;;4945835;29;20050;-83
2023/05/09 08:34:21;;;;;;;8.70;2.10;;;;;;;;;;4943821;29;20046;-84
2023/05/09 08:36:47;;;;;;;4.78;2.30;;;;;;;;;;4962133;29;20079;-81
2023/05/09 08:39:14;;;;;;;4.82;2.13;;;;;;;;;;4954155;29;20135;-84
2023/05/09 08:41:41;;;;;;;5.18;2.35;;;;;;;;;;4951497;29;20076;-83
2023/05/09 08:44:11;;;;;;;9.10;1.90;;;;;;;;;;4954002;29;20043;-83
2023/05/09 08:46:41;;;;;;;3.75;1.90;;;;;;;;;;4947721;29;20035;-83
2023/05/09 08:49:08;;;;;;;5.68;1.95;;;;;;;;;;4954658;28;20100;-83
2023/05/09 08:51:35;;;;;;;8.75;2.10;;;;;;;;;;4954630;28;20071;-83
2023/05/09 08:54:02;;;;;;;9.23;2.25;;;;;;;;;;4950575;29;20054;-84
2023/05/09 08:56:29;;;;;;;7.78;2.03;;;;;;;;;;4952866;28;20035;-83
2023/05/09 08:58:57;;;;;;;3.58;1.98;;;;;;;;;;4948971;29;20052;-84
2023/05/09 09:01:27;;;;;;;5.85;1.88;;;;;;;;;;4930686;29;20039;-83
2023/05/09 09:03:54;;;;;;;3.70;1.63;;;;;;;;;;4952242;29;20035;-83
2023/05/09 09:06:22;;;;;;;4.65;1.80;;;;;;;;;;4949835;28;20048;-84
2023/05/09 09:08:49;;;;;;;6.93;2.00;;;;;;;;;;4945229;29;20083;-84
2023/05/09 09:11:16;;;;;;;2.72;1.63;;;;;;;;;;4953608;28;20043;-83
2023/05/09 09:13:44;;;;;;;2.90;1.55;;;;;;;;;;4953098;29;20043;-82
2023/05/09 09:16:19;;;;;;;8.32;1.80;;;;;;;;;;4955151;29;20050;-84
2023/05/09 09:18:46;;;;;;;5.90;1.80;;;;;;;;;;4954230;28;20039;-83
2023/05/09 09:21:15;;;;;;;8.10;2.45;;;;;;;;;;4954206;29;20438;-83
2023/05/09 09:23:46;;;;;;;5.38;1.92;;;;;;;;;;4952284;28;20068;-83
2023/05/09 09:26:13;;;;;;;3.72;1.70;;;;;;;;;;4972646;28;20055;-83
2023/05/09 09:28:42;;;;;;;7.28;1.88;;;;;;;;;;4985694;28;20051;-84
2023/05/09 09:31:22;;;;;;;6.35;1.80;;;;;;;;;;4948920;29;20126;-84
2023/05/09 09:33:50;;;;;;;3.88;1.60;;;;;;;;;;4949957;28;20047;-83
2023/05/09 09:36:27;;;;;;;4.68;1.67;;;;;;;;;;4950562;29;20048;-83
2023/05/09 09:39:00;;;;;;;10.45;1.83;;;;;;;;;;4950106;29;20039;-84
2023/05/09 09:41:37;;;;;;;8.05;1.88;;;;;;;;;;4948415;29;20047;-84
2023/05/09 09:44:07;;;;;;;3.03;1.70;;;;;;;;;;4949270;28;20103;-85
2023/05/09 09:46:46;;;;;;;5.60;1.67;;;;;;;;;;4943268;29;20120;-83
2023/05/09 09:49:13;;;;;;;4.53;1.88;;;;;;;;;;4949101;28;20044;-86
2023/05/09 09:51:40;;;;;;;4.07;1.58;;;;;;;;;;4946940;29;20071;-84
2023/05/09 09:54:07;;;;;;;5.72;1.58;;;;;;;;;;4948242;29;20054;-85
2023/05/09 09:56:41;;;;;;;3.97;1.70;;;;;;;;;;4946806;28;20055;-84
2023/05/09 09:59:10;;;;;;;4.40;2.00;;;;;;;;;;4946075;29;20087;-82
2023/05/09 10:01:56;;;;;;;6.30;1.60;;;;;;;;;;4944109;29;20043;-84
2023/05/09 10:04:23;;;;;;;4.57;1.88;;;;;;;;;;4951937;28;20047;-82
2023/05/09 10:06:51;;;;;;;2.72;1.70;;;;;;;;;;4952237;29;20062;-82
2023/05/09 10:09:19;;;;;;;3.88;2.00;;;;;;;;;;4950963;29;20066;-83
2023/05/09 10:11:47;;;;;;;6.40;1.80;;;;;;;;;;4950915;29;20067;-80
2023/05/09 10:14:14;;;;;;;10.55;1.98;;;;;;;;;;4951404;28;20429;-80
2023/05/09 10:16:42;;;;;;;2.50;1.67;;;;;;;;;;4948031;29;20152;-80
2023/05/09 10:19:11;;;;;;;6.43;1.60;;;;;;;;;;4946757;29;24573;-82
2023/05/09 10:21:38;;;;;;;3.50;1.60;;;;;;;;;;4947533;29;20103;-82
2023/05/09 10:24:05;;;;;;;4.28;1.50;;;;;;;;;;4951791;28;20054;-81
2023/05/09 10:26:36;;;;;;;3.22;1.45;;;;;;;;;;4948091;28;20054;-83
2023/05/09 10:29:06;;;;;;;4.03;1.63;;;;;;;;;;4953613;28;20035;-81
2023/05/09 10:31:35;;;;;;;7.32;1.70;;;;;;;;;;4968428;28;20063;-82
2023/05/09 10:34:04;;;;;;;2.65;1.60;;;;;;;;;;4948446;28;20375;-82
2023/05/09 10:36:31;;;;;;;2.70;1.70;;;;;;;;;;4969340;28;20609;-82
2023/05/09 10:38:58;;;;;;;3.53;1.83;;;;;;;;;;4970722;28;20043;-81
2023/05/09 10:41:25;;;;;;;3.05;1.70;;;;;;;;;;4967919;28;20043;-83
2023/05/09 10:43:54;;;;;;;3.75;1.70;;;;;;;;;;4964747;28;20063;-82
2023/05/09 10:46:22;;;;;;;7.38;1.80;;;;;;;;;;4962169;28;20492;-81
2023/05/09 10:48:48;;;;;;;3.60;1.60;;;;;;;;;;4960356;28;20206;-82
2023/05/09 10:51:16;;;;;;;2.35;1.40;;;;;;;;;;4963325;28;20069;-83
2023/05/09 10:53:47;;;;;;;5.03;1.77;;;;;;;;;;4963658;28;20047;-84
2023/05/09 10:56:23;;;;;;;7.32;1.90;;;;;;;;;;4965021;28;20057;-80
2023/05/09 10:58:49;;;;;;;4.07;1.65;;;;;;;;;;4966491;28;20051;-83
2023/05/09 11:01:27;;;;;;;3.20;1.70;;;;;;;;;;4965405;28;20047;-82
2023/05/09 11:03:55;;;;;;;2.70;1.60;;;;;;;;;;4962304;28;20047;-82
2023/05/09 11:06:44;;;;;;;4.60;1.45;;;;;;;;;;4962075;28;20154;-82
2023/05/09 11:09:28;;;;;;;6.97;1.73;;;;;;;;;;4962079;28;20043;-80
2023/05/09 11:11:56;;;;;;;4.45;1.70;;;;;;;;;;4942560;29;20070;-81
2023/05/09 11:14:30;;;;;;;13.18;1.90;;;;;;;;;;4947133;29;20059;-81
2023/05/09 11:16:58;;;;;;;6.43;1.65;;;;;;;;;;4961843;28;20115;-83
2023/05/09 11:19:35;;;;;;;11.13;1.77;;;;;;;;;;4964330;28;20054;-82
2023/05/09 11:22:15;;;;;;;7.75;1.98;;;;;;;;;;4961508;28;20138;-82
2023/05/09 11:24:46;;;;;;;3.53;1.63;;;;;;;;;;4956492;28;20047;-82
2023/05/09 11:27:23;;;;;;;3.85;1.73;;;;;;;;;;4944893;28;20416;-84
2023/05/09 11:29:52;;;;;;;3.80;1.40;;;;;;;;;;4956043;28;20063;-83
2023/05/09 11:32:20;;;;;;;4.90;1.77;;;;;;;;;;4963614;28;20047;-85
2023/05/09 11:34:48;;;;;;;3.78;1.77;;;;;;;;;;4963428;28;20054;-83
2023/05/09 11:37:16;;;;;;;2.92;1.75;;;;;;;;;;4960751;28;20182;-81
2023/05/09 11:39:59;;;;;;;4.00;1.70;;;;;;;;;;4964633;28;20070;-82
2023/05/09 11:42:29;;;;;;;6.45;1.67;;;;;;;;;;4963811;28;20051;-78
2023/05/09 11:44:57;;;;;;;8.73;2.10;;;;;;;;;;4964556;28;20055;-82
2023/05/09 11:47:24;;;;;;;3.13;1.75;;;;;;;;;;4964923;28;20094;-83
2023/05/09 11:49:52;;;;;;;11.40;1.80;;;;;;;;;;4953794;28;20070;-81
2023/05/09 11:52:19;;;;;;;8.98;1.60;;;;;;;;;;4971747;28;20051;-82
2023/05/09 11:54:46;;;;;;;7.40;1.70;;;;;;;;;;4967810;28;20059;-83
2023/05/09 11:57:16;;;;;;;12.20;1.70;;;;;;;;;;4963243;28;20054;-81
2023/05/09 11:59:44;;;;;;;4.00;1.80;;;;;;;;;;4960361;28;20570;-81
2023/05/09 12:02:11;;;;;;;4.32;1.60;;;;;;;;;;4962303;28;20051;-81
2023/05/09 12:04:38;;;;;;;5.22;1.67;;;;;;;;;;4962493;28;20049;-84
2023/05/09 12:07:05;;;;;;;8.77;1.48;;;;;;;;;;4947671;28;20114;-81
2023/05/09 12:09:33;;;;;;;6.10;1.40;;;;;;;;;;4961364;28;20050;-82
2023/05/09 12:12:00;;;;;;;5.07;1.67;;;;;;;;;;4961629;28;20082;-82
2023/05/09 12:14:27;;;;;;;4.70;1.50;;;;;;;;;;4964473;28;20074;-82
2023/05/09 12:16:54;;;;;;;11.30;1.50;;;;;;;;;;4960904;28;20051;-83
2023/05/09 12:19:24;;;;;;;9.40;1.77;;;;;;;;;;4967421;28;20115;-84
2023/05/09 12:21:57;;;;;;;5.68;1.63;;;;;;;;;;4980681;28;20063;-81
2023/05/09 12:24:27;;;;;;;14.50;2.20;;;;;;;;;;4967377;28;20066;-80
2023/05/09 12:26:57;;;;;;;8.20;1.88;;;;;;;;;;4969189;28;20123;-82
2023/05/09 12:29:25;;;;;;;4.95;1.85;;;;;;;;;;4952898;28;20060;-82
2023/05/09 12:31:52;;;;;;;4.32;1.75;;;;;;;;;;4936503;28;20720;-80
2023/05/09 12:34:19;;;;;;;5.60;2.15;;;;;;;;;;4940125;29;20072;-82
2023/05/09 12:36:52;;;;;;;5.03;2.03;;;;;;;;;;4942856;29;20067;-82
2023/05/09 12:39:23;;;;;;;3.58;1.90;;;;;;;;;;4944079;29;20059;-81
2023/05/09 12:41:50;;;;;;;6.25;2.00;;;;;;;;;;4943553;29;20083;-84
2023/05/09 12:44:28;;;;;;;5.47;1.95;;;;;;;;;;4940202;29;20039;-84
2023/05/09 12:47:02;;;;;;;4.38;2.10;;;;;;;;;;4942222;29;22371;-82
2023/05/09 12:49:29;;;;;;;3.30;2.33;;;;;;;;;;4941159;29;20047;-83
2023/05/09 12:51:57;;;;;;;6.82;2.40;;;;;;;;;;4938585;28;20059;-83
2023/05/09 12:54:25;;;;;;;9.43;2.30;;;;;;;;;;4944981;29;20048;-81
2023/05/09 12:56:54;;;;;;;9.68;2.30;;;;;;;;;;4943602;29;20051;-83
2023/05/09 12:59:24;;;;;;;3.40;2.03;;;;;;;;;;4944428;29;20088;-82
2023/05/09 13:01:53;;;;;;;5.60;2.22;;;;;;;;;;4963635;28;20099;-82
2023/05/09 13:04:20;;;;;;;7.68;2.38;;;;;;;;;;4945572;29;20044;-82
2023/05/09 13:06:51;;;;;;;5.20;2.13;;;;;;;;;;4947649;29;20058;-82
2023/05/09 13:09:18;;;;;;;8.82;2.72;;;;;;;;;;4958024;28;20512;-82
2023/05/09 13:11:45;;;;;;;4.03;2.40;;;;;;;;;;4940608;28;20111;-81
2023/05/09 13:14:12;;;;;;;4.95;2.15;;;;;;;;;;4947174;29;20036;-79
2023/05/09 13:16:42;;;;;;;8.02;2.03;;;;;;;;;;4952320;29;20031;-83
2023/05/09 13:19:09;;;;;;;7.60;2.25;;;;;;;;;;4944585;29;20124;-83
2023/05/09 13:21:35;;;;;;;3.38;1.80;;;;;;;;;;4944614;28;20047;-83
2023/05/09 13:24:02;;;;;;;4.88;2.20;;;;;;;;;;4956267;28;20429;-83
2023/05/09 13:26:30;;;;;;;5.82;2.33;;;;;;;;;;4961088;28;21463;-83
2023/05/09 13:28:56;;;;;;;6.65;2.58;;;;;;;;;;4981382;28;20135;-82
2023/05/09 13:31:23;;;;;;;6.72;2.13;;;;;;;;;;4947217;28;20494;-82
2023/05/09 13:33:50;;;;;;;7.15;2.00;;;;;;;;;;4961098;28;20047;-83
2023/05/09 13:36:17;;;;;;;6.45;2.20;;;;;;;;;;4975586;28;20051;-82
2023/05/09 13:38:44;;;;;;;4.13;2.30;;;;;;;;;;4962976;28;20058;-82
2023/05/09 13:41:18;;;;;;;4.97;2.60;;;;;;;;;;4959793;28;20456;-83
2023/05/09 13:43:46;;;;;;;5.45;2.08;;;;;;;;;;4964344;28;20055;-82
2023/05/09 13:46:12;;;;;;;9.40;2.30;;;;;;;;;;4968223;28;20101;-84
2023/05/09 13:48:40;;;;;;;3.03;2.38;;;;;;;;;;4963225;28;20047;-82
2023/05/09 13:51:07;;;;;;;7.78;2.20;;;;;;;;;;4963781;28;20071;-83
2023/05/09 13:53:34;;;;;;;6.72;2.13;;;;;;;;;;4979227;28;20047;-79
2023/05/09 13:56:05;;;;;;;5.10;2.20;;;;;;;;;;4957946;28;20051;-83
2023/05/09 13:58:31;;;;;;;5.57;2.28;;;;;;;;;;4967470;28;20043;-82
2023/05/09 14:00:58;;;;;;;6.80;2.30;;;;;;;;;;4966019;28;20499;-83
2023/05/09 14:03:25;;;;;;;5.80;2.25;;;;;;;;;;4965724;28;20047;-83
2023/05/09 14:05:52;;;;;;;3.38;2.17;;;;;;;;;;4965742;28;20043;-84
2023/05/09 14:08:20;;;;;;;9.80;2.60;;;;;;;;;;4972958;28;20058;-84
2023/05/09 14:10:46;;;;;;;5.78;2.60;;;;;;;;;;4945043;28;20039;-80
2023/05/09 14:13:14;;;;;;;13.25;2.42;;;;;;;;;;4971608;28;20054;-79
2023/05/09 14:15:41;;;;;;;3.78;2.33;;;;;;;;;;4948606;28;20452;-80
2023/05/09 14:18:07;;;;;;;6.90;2.50;;;;;;;;;;4946139;28;20581;-79
2023/05/09 14:20:36;;;;;;;7.03;2.10;;;;;;;;;;4941463;28;20440;-79
2023/05/09 14:23:02;;;;;;;11.75;2.72;;;;;;;;;;4938892;28;20066;-79
2023/05/09 14:25:29;;;;;;;8.20;2.08;;;;;;;;;;4939185;28;20095;-78
2023/05/09 14:27:56;;;;;;;7.07;2.67;;;;;;;;;;4957005;28;20137;-78
2023/05/09 14:30:25;;;;;;;5.75;2.70;;;;;;;;;;4962720;28;20043;-78
2023/05/09 14:32:52;;;;;;;4.40;2.50;;;;;;;;;;4940286;28;20126;-77
2023/05/09 14:35:18;;;;;;;4.95;2.40;;;;;;;;;;4942660;28;20067;-77
2023/05/09 14:44:08;;;;;;;4.82;2.50;;;;;;;;;;4944974;28;20067;-78
2023/05/09 14:46:35;;;;;;;9.50;2.65;;;;;;;;;;4960395;28;20047;-76
2023/05/09 14:49:03;;;;;;;4.63;2.60;;;;;;;;;;4948559;28;20057;-77
2023/05/09 14:51:30;;;;;;;7.75;2.50;;;;;;;;;;4944569;28;20164;-77
2023/05/09 14:53:57;;;;;;;10.13;2.55;;;;;;;;;;4930991;28;20052;-75